createdAt,value
2019-01-08T00:00:03.635Z,1011.1773
2019-01-08T00:00:06.098Z,1011.1723
2019-01-08T00:00:09.550Z,1011.1395
2019-01-08T00:00:13.001Z,1011.1437
2019-01-08T00:00:16.528Z,1011.1286
2019-01-08T00:00:19.925Z,1011.1542
2019-01-08T00:00:23.360Z,1011.1655
2019-01-08T00:00:26.814Z,1011.1374
2019-01-08T00:00:30.275Z,1011.1168
2019-01-08T00:00:33.702Z,1011.1331
2019-01-08T00:00:37.138Z,1011.139
2019-01-08T00:00:40.570Z,1011.1398
2019-01-08T00:00:44.024Z,1011.1179
2019-01-08T00:00:47.485Z,1011.1171
2019-01-08T00:00:50.953Z,1011.1221
2019-01-08T00:00:54.390Z,1011.155
2019-01-08T00:00:57.825Z,1011.1121
2019-01-08T00:01:01.271Z,1011.1604
2019-01-08T00:01:04.706Z,1011.1567
2019-01-08T00:01:08.151Z,1011.15
2019-01-08T00:01:11.590Z,1011.1487
2019-01-08T00:01:15.038Z,1011.1306
2019-01-08T00:01:18.479Z,1011.1681
2019-01-08T00:01:21.904Z,1011.1156
2019-01-08T00:01:25.381Z,1011.1537
2019-01-08T00:01:28.825Z,1011.1475
2019-01-08T00:01:32.273Z,1011.1487
2019-01-08T00:01:35.710Z,1011.1437
2019-01-08T00:01:39.170Z,1011.096
2019-01-08T00:01:42.601Z,1011.1223
2019-01-08T00:01:46.037Z,1011.1171
2019-01-08T00:01:49.509Z,1011.1251
2019-01-08T00:01:52.931Z,1011.1693
2019-01-08T00:01:56.367Z,1011.1554
2019-01-08T00:01:59.823Z,1011.1076
2019-01-08T00:02:03.265Z,1011.1134
2019-01-08T00:02:06.713Z,1011.1037
2019-01-08T00:02:10.143Z,1011.1268
2019-01-08T00:02:13.595Z,1011.0714
2019-01-08T00:02:18.052Z,1011.1116
2019-01-08T00:02:21.483Z,1011.1295
2019-01-08T00:02:24.941Z,1011.1554
2019-01-08T00:02:28.374Z,1011.1849
2019-01-08T00:02:31.806Z,1011.1943
2019-01-08T00:02:35.251Z,1011.1942
2019-01-08T00:02:38.681Z,1011.16
2019-01-08T00:02:42.191Z,1011.1445
2019-01-08T00:02:45.641Z,1011.1807
2019-01-08T00:02:49.078Z,1011.1445
2019-01-08T00:02:52.523Z,1011.1554
2019-01-08T00:02:55.995Z,1011.1613
2019-01-08T00:02:59.425Z,1011.1437
2019-01-08T00:03:02.860Z,1011.1487
2019-01-08T00:03:06.306Z,1011.1546
2019-01-08T00:03:09.749Z,1011.1273
2019-01-08T00:03:13.179Z,1011.1302
2019-01-08T00:03:16.657Z,1011.1336
2019-01-08T00:03:20.087Z,1011.1604
2019-01-08T00:03:23.554Z,1011.1623
2019-01-08T00:03:27.016Z,1011.1966
2019-01-08T00:03:30.442Z,1011.1674
2019-01-08T00:03:33.885Z,1011.1791
2019-01-08T00:03:37.317Z,1011.1842
2019-01-08T00:03:40.753Z,1011.1648
2019-01-08T00:03:44.219Z,1011.1876
2019-01-08T00:03:47.637Z,1011.1859
2019-01-08T00:03:51.104Z,1011.1975
2019-01-08T00:03:54.540Z,1011.1513
2019-01-08T00:03:57.983Z,1011.1489
2019-01-08T00:04:01.416Z,1011.2078
2019-01-08T00:04:04.873Z,1011.1875
2019-01-08T00:04:08.310Z,1011.1865
2019-01-08T00:04:11.751Z,1011.184
2019-01-08T00:04:15.197Z,1011.2109
2019-01-08T00:04:18.633Z,1011.1612
2019-01-08T00:04:22.081Z,1011.1556
2019-01-08T00:04:25.529Z,1011.1556
2019-01-08T00:04:28.963Z,1011.158
2019-01-08T00:04:32.399Z,1011.1824
2019-01-08T00:04:35.855Z,1011.1487
2019-01-08T00:04:39.295Z,1011.1657
2019-01-08T00:04:42.737Z,1011.1672
2019-01-08T00:04:46.190Z,1011.137
2019-01-08T00:04:49.672Z,1011.0815
2019-01-08T00:04:53.122Z,1011.1018
2019-01-08T00:04:56.559Z,1011.0949
2019-01-08T00:04:59.996Z,1011.137
2019-01-08T00:05:03.438Z,1011.0797
2019-01-08T00:05:06.892Z,1011.1024
2019-01-08T00:05:10.337Z,1011.0941
2019-01-08T00:05:13.767Z,1011.1326
2019-01-08T00:05:17.218Z,1011.1018
2019-01-08T00:05:20.645Z,1011.1286
2019-01-08T00:05:24.079Z,1011.1251
2019-01-08T00:05:27.511Z,1011.1203
2019-01-08T00:05:30.969Z,1011.131
2019-01-08T00:05:34.423Z,1011.1437
2019-01-08T00:05:38.107Z,1011.1259
2019-01-08T00:05:41.671Z,1011.0849
2019-01-08T00:05:45.113Z,1011.127
2019-01-08T00:05:48.543Z,1011.0898
2019-01-08T00:05:51.981Z,1011.1068
2019-01-08T00:05:55.416Z,1011.0999
2019-01-08T00:05:58.845Z,1011.1109
2019-01-08T00:06:03.286Z,1011.1361
2019-01-08T00:06:06.716Z,1011.1489
2019-01-08T00:06:10.167Z,1011.1539
2019-01-08T00:06:13.614Z,1011.1809
2019-01-08T00:06:18.046Z,1011.1629
2019-01-08T00:06:21.497Z,1011.1573
2019-01-08T00:06:24.934Z,1011.1479
2019-01-08T00:06:28.379Z,1011.1428
2019-01-08T00:06:31.833Z,1011.179
2019-01-08T00:06:35.283Z,1011.1749
2019-01-08T00:06:38.712Z,1011.1422
2019-01-08T00:06:42.156Z,1011.1326
2019-01-08T00:06:45.627Z,1011.1074
2019-01-08T00:06:49.080Z,1011.1573
2019-01-08T00:06:52.531Z,1011.1883
2019-01-08T00:06:55.965Z,1011.121
2019-01-08T00:06:59.398Z,1011.1529
2019-01-08T00:07:02.851Z,1011.1303
2019-01-08T00:07:06.300Z,1011.1201
2019-01-08T00:07:09.787Z,1011.1093
2019-01-08T00:07:13.264Z,1011.1319
2019-01-08T00:07:17.648Z,1011.1453
2019-01-08T00:07:21.147Z,1011.1378
2019-01-08T00:07:24.604Z,1011.1638
2019-01-08T00:07:28.056Z,1011.1251
2019-01-08T00:07:32.514Z,1011.1791
2019-01-08T00:07:35.968Z,1011.1707
2019-01-08T00:07:40.418Z,1011.1185
2019-01-08T00:07:43.848Z,1011.1184
2019-01-08T00:07:47.294Z,1011.1018
2019-01-08T00:07:50.756Z,1011.1621
2019-01-08T00:07:54.199Z,1011.1353
2019-01-08T00:07:57.681Z,1011.1276
2019-01-08T00:08:01.154Z,1011.1623
2019-01-08T00:08:04.589Z,1011.1429
2019-01-08T00:08:08.029Z,1011.1801
2019-01-08T00:08:11.474Z,1011.1496
2019-01-08T00:08:14.911Z,1011.1286
2019-01-08T00:08:18.474Z,1011.1707
2019-01-08T00:08:22.773Z,1011.1741
2019-01-08T00:08:26.235Z,1011.1505
2019-01-08T00:08:29.718Z,1011.1588
2019-01-08T00:08:33.157Z,1011.1926
2019-01-08T00:08:36.600Z,1011.2028
2019-01-08T00:08:40.043Z,1011.2145
2019-01-08T00:08:44.469Z,1011.1302
2019-01-08T00:08:47.941Z,1011.1859
2019-01-08T00:08:51.380Z,1011.1698
2019-01-08T00:08:54.822Z,1011.2076
2019-01-08T00:08:58.270Z,1011.1934
2019-01-08T00:09:01.712Z,1011.2028
2019-01-08T00:09:05.169Z,1011.1917
2019-01-08T00:09:08.631Z,1011.1842
2019-01-08T00:09:12.075Z,1011.1554
2019-01-08T00:09:15.528Z,1011.1681
2019-01-08T00:09:18.978Z,1011.1537
2019-01-08T00:09:22.421Z,1011.2263
2019-01-08T00:09:25.872Z,1011.1807
2019-01-08T00:09:29.308Z,1011.1926
2019-01-08T00:09:32.743Z,1011.1724
2019-01-08T00:09:36.193Z,1011.1857
2019-01-08T00:09:39.646Z,1011.1134
2019-01-08T00:09:43.096Z,1011.1253
2019-01-08T00:09:46.558Z,1011.0831
2019-01-08T00:09:50.015Z,1011.1556
2019-01-08T00:09:53.470Z,1011.1462
2019-01-08T00:09:56.904Z,1011.1642
2019-01-08T00:10:00.356Z,1011.1353
2019-01-08T00:10:03.828Z,1011.1395
2019-01-08T00:10:07.283Z,1011.1422
2019-01-08T00:10:10.725Z,1011.1489
2019-01-08T00:10:14.195Z,1011.1118
2019-01-08T00:10:17.649Z,1011.1235
2019-01-08T00:10:21.087Z,1011.1698
2019-01-08T00:10:24.524Z,1011.127
2019-01-08T00:10:27.954Z,1011.1734
2019-01-08T00:10:31.402Z,1011.1085
2019-01-08T00:10:34.855Z,1011.1389
2019-01-08T00:10:38.307Z,1011.1018
2019-01-08T00:10:41.766Z,1011.1154
2019-01-08T00:10:45.212Z,1011.1135
2019-01-08T00:10:48.650Z,1011.127
2019-01-08T00:10:52.091Z,1011.1589
2019-01-08T00:10:55.533Z,1011.1406
2019-01-08T00:10:58.970Z,1011.1565
2019-01-08T00:11:02.406Z,1011.1168
2019-01-08T00:11:05.849Z,1011.1489
2019-01-08T00:11:09.304Z,1011.0924
2019-01-08T00:11:12.760Z,1011.1278
2019-01-08T00:11:16.205Z,1011.1666
2019-01-08T00:11:19.635Z,1011.1556
2019-01-08T00:11:23.088Z,1011.137
2019-01-08T00:11:26.511Z,1011.126
2019-01-08T00:11:29.949Z,1011.1481
2019-01-08T00:11:33.387Z,1011.1154
2019-01-08T00:11:36.842Z,1011.1076
2019-01-08T00:11:40.281Z,1011.0917
2019-01-08T00:11:43.725Z,1011.1169
2019-01-08T00:11:47.187Z,1011.1024
2019-01-08T00:11:50.638Z,1011.0815
2019-01-08T00:11:54.099Z,1011.0714
2019-01-08T00:11:57.541Z,1011.0681
2019-01-08T00:12:00.981Z,1011.0731
2019-01-08T00:12:04.412Z,1011.0462
2019-01-08T00:12:07.868Z,1011.0178
2019-01-08T00:12:11.295Z,1011.0329
2019-01-08T00:12:14.751Z,1011.0151
2019-01-08T00:12:18.172Z,1011.0547
2019-01-08T00:12:21.625Z,1011.0075
2019-01-08T00:12:25.074Z,1011.0429
2019-01-08T00:12:28.554Z,1011.0133
2019-01-08T00:12:31.998Z,1011.0075
2019-01-08T00:12:35.458Z,1011.0421
2019-01-08T00:12:38.918Z,1011.0379
2019-01-08T00:12:42.355Z,1011.0262
2019-01-08T00:12:45.809Z,1011.0463
2019-01-08T00:12:49.244Z,1011.0581
2019-01-08T00:12:52.688Z,1011.0234
2019-01-08T00:12:56.133Z,1011.0032
2019-01-08T00:12:59.577Z,1011.0226
2019-01-08T00:13:03.021Z,1011.069
2019-01-08T00:13:06.463Z,1011.0109
2019-01-08T00:13:09.900Z,1011.0429
2019-01-08T00:13:13.340Z,1011.0656
2019-01-08T00:13:17.773Z,1011.0075
2019-01-08T00:13:21.229Z,1011.0675
2019-01-08T00:13:24.669Z,1011
2019-01-08T00:13:28.118Z,1011.0429
2019-01-08T00:13:31.553Z,1011.0025
2019-01-08T00:13:34.987Z,1010.999
2019-01-08T00:13:38.501Z,1011.0127
2019-01-08T00:13:41.856Z,1010.9796
2019-01-08T00:13:45.323Z,1011.0093
2019-01-08T00:13:48.836Z,1011.022
2019-01-08T00:13:52.269Z,1010.9807
2019-01-08T00:13:55.716Z,1011.0404
2019-01-08T00:13:59.143Z,1010.9748
2019-01-08T00:14:03.571Z,1010.9755
2019-01-08T00:14:07.022Z,1010.9966
2019-01-08T00:14:10.465Z,1010.9857
2019-01-08T00:14:13.907Z,1010.9454
2019-01-08T00:14:17.343Z,1010.9899
2019-01-08T00:14:20.828Z,1011.0144
2019-01-08T00:14:24.268Z,1010.979
2019-01-08T00:14:27.724Z,1010.9924
2019-01-08T00:14:31.166Z,1011.0076
2019-01-08T00:14:34.620Z,1010.9924
2019-01-08T00:14:38.228Z,1010.9553
2019-01-08T00:14:41.688Z,1010.9738
2019-01-08T00:14:45.126Z,1010.9706
2019-01-08T00:14:48.560Z,1010.962
2019-01-08T00:14:52.000Z,1010.9142
2019-01-08T00:14:56.436Z,1010.99
2019-01-08T00:14:59.879Z,1010.9606
2019-01-08T00:15:03.336Z,1010.9572
2019-01-08T00:15:06.758Z,1010.9099
2019-01-08T00:15:10.213Z,1010.9386
2019-01-08T00:15:13.651Z,1010.9403
2019-01-08T00:15:17.081Z,1010.9704
2019-01-08T00:15:20.537Z,1010.9564
2019-01-08T00:15:23.973Z,1010.9437
2019-01-08T00:15:27.459Z,1010.9572
2019-01-08T00:15:30.892Z,1010.9319
2019-01-08T00:15:34.339Z,1010.9456
2019-01-08T00:15:37.770Z,1010.9445
2019-01-08T00:15:41.229Z,1010.9613
2019-01-08T00:15:44.671Z,1010.9656
2019-01-08T00:15:48.111Z,1010.9816
2019-01-08T00:15:51.575Z,1010.9614
2019-01-08T00:15:55.008Z,1010.9589
2019-01-08T00:15:58.446Z,1010.9472
2019-01-08T00:16:01.893Z,1010.937
2019-01-08T00:16:05.338Z,1010.9243
2019-01-08T00:16:08.807Z,1010.936
2019-01-08T00:16:12.283Z,1010.9848
2019-01-08T00:16:15.715Z,1010.9723
2019-01-08T00:16:19.167Z,1011.0076
2019-01-08T00:16:22.598Z,1010.9792
2019-01-08T00:16:26.031Z,1010.964
2019-01-08T00:16:29.471Z,1010.9606
2019-01-08T00:16:32.918Z,1010.9606
2019-01-08T00:16:36.343Z,1010.9259
2019-01-08T00:16:39.779Z,1010.9681
2019-01-08T00:16:43.227Z,1010.984
2019-01-08T00:16:46.681Z,1011.0095
2019-01-08T00:16:50.116Z,1011.0145
2019-01-08T00:16:53.546Z,1011.0112
2019-01-08T00:16:57.002Z,1010.99
2019-01-08T00:17:00.437Z,1010.9924
2019-01-08T00:17:03.893Z,1010.9874
2019-01-08T00:17:07.328Z,1010.991
2019-01-08T00:17:11.762Z,1010.9943
2019-01-08T00:17:15.203Z,1010.9741
2019-01-08T00:17:18.645Z,1011.0084
2019-01-08T00:17:22.090Z,1010.9311
2019-01-08T00:17:25.525Z,1010.9757
2019-01-08T00:17:28.970Z,1010.9083
2019-01-08T00:17:32.399Z,1010.9422
2019-01-08T00:17:35.837Z,1010.9606
2019-01-08T00:17:39.276Z,1010.9134
2019-01-08T00:17:42.714Z,1010.8933
2019-01-08T00:17:46.173Z,1010.9362
2019-01-08T00:17:49.622Z,1010.8948
2019-01-08T00:17:53.074Z,1010.9456
2019-01-08T00:17:56.510Z,1010.9539
2019-01-08T00:18:00.958Z,1010.9815
2019-01-08T00:18:04.399Z,1010.9512
2019-01-08T00:18:07.848Z,1010.9337
2019-01-08T00:18:11.315Z,1010.9032
2019-01-08T00:18:14.740Z,1010.8797
2019-01-08T00:18:18.260Z,1010.9276
2019-01-08T00:18:22.671Z,1010.9422
2019-01-08T00:18:26.116Z,1010.9657
2019-01-08T00:18:29.549Z,1010.9437
2019-01-08T00:18:32.999Z,1010.9514
2019-01-08T00:18:36.455Z,1010.9226
2019-01-08T00:18:39.891Z,1010.9025
2019-01-08T00:18:43.328Z,1010.9311
2019-01-08T00:18:47.765Z,1011.0151
2019-01-08T00:18:51.213Z,1010.9657
2019-01-08T00:18:54.649Z,1010.9714
2019-01-08T00:18:59.076Z,1010.9321
2019-01-08T00:19:02.508Z,1010.9319
2019-01-08T00:19:05.955Z,1010.8858
2019-01-08T00:19:09.392Z,1010.8917
2019-01-08T00:19:12.831Z,1010.9042
2019-01-08T00:19:17.261Z,1010.9337
2019-01-08T00:19:20.700Z,1010.9076
2019-01-08T00:19:24.135Z,1010.9226
2019-01-08T00:19:27.577Z,1010.9102
2019-01-08T00:19:31.018Z,1010.9337
2019-01-08T00:19:34.445Z,1010.9674
2019-01-08T00:19:37.887Z,1010.9254
2019-01-08T00:19:41.322Z,1010.9463
2019-01-08T00:19:44.767Z,1010.9781
2019-01-08T00:19:48.239Z,1010.9613
2019-01-08T00:19:51.687Z,1010.9741
2019-01-08T00:19:55.133Z,1010.974
2019-01-08T00:19:58.586Z,1011.0084
2019-01-08T00:20:02.031Z,1010.9816
2019-01-08T00:20:05.466Z,1010.9681
2019-01-08T00:20:08.896Z,1011.0145
2019-01-08T00:20:12.342Z,1010.9268
2019-01-08T00:20:15.777Z,1010.9343
2019-01-08T00:20:19.276Z,1010.9191
2019-01-08T00:20:22.720Z,1010.937
2019-01-08T00:20:26.169Z,1010.9201
2019-01-08T00:20:29.609Z,1010.9236
2019-01-08T00:20:33.053Z,1010.9343
2019-01-08T00:20:36.493Z,1010.9085
2019-01-08T00:20:39.933Z,1010.9354
2019-01-08T00:20:43.371Z,1010.9758
2019-01-08T00:20:46.815Z,1010.9597
2019-01-08T00:20:50.260Z,1010.9589
2019-01-08T00:20:53.696Z,1010.9243
2019-01-08T00:20:57.148Z,1010.9506
2019-01-08T00:21:00.594Z,1010.9343
2019-01-08T00:21:04.038Z,1010.9168
2019-01-08T00:21:07.470Z,1010.8773
2019-01-08T00:21:10.920Z,1010.9
2019-01-08T00:21:14.350Z,1010.9117
2019-01-08T00:21:17.801Z,1010.8881
2019-01-08T00:21:22.242Z,1010.8529
2019-01-08T00:21:25.690Z,1010.9016
2019-01-08T00:21:29.139Z,1010.8781
2019-01-08T00:21:32.579Z,1010.8311
2019-01-08T00:21:36.017Z,1010.8445
2019-01-08T00:21:39.466Z,1010.8698
2019-01-08T00:21:42.911Z,1010.8462
2019-01-08T00:21:46.362Z,1010.8915
2019-01-08T00:21:49.806Z,1010.8378
2019-01-08T00:21:53.239Z,1010.8833
2019-01-08T00:21:56.690Z,1010.8462
2019-01-08T00:22:00.139Z,1010.8395
2019-01-08T00:22:03.569Z,1010.8462
2019-01-08T00:22:07.000Z,1010.8698
2019-01-08T00:22:10.444Z,1010.8839
2019-01-08T00:22:13.896Z,1010.863
2019-01-08T00:22:17.353Z,1010.8545
2019-01-08T00:22:21.278Z,1010.8064
2019-01-08T00:22:24.705Z,1010.8092
2019-01-08T00:22:28.147Z,1010.9062
2019-01-08T00:22:31.631Z,1010.867
2019-01-08T00:22:35.064Z,1010.8007
2019-01-08T00:22:38.515Z,1010.8148
2019-01-08T00:22:41.955Z,1010.841
2019-01-08T00:22:45.415Z,1010.8439
2019-01-08T00:22:48.849Z,1010.841
2019-01-08T00:22:52.284Z,1010.8511
2019-01-08T00:22:55.726Z,1010.8933
2019-01-08T00:22:59.183Z,1010.8456
2019-01-08T00:23:02.614Z,1010.8419
2019-01-08T00:23:06.056Z,1010.8759
2019-01-08T00:23:09.492Z,1010.8894
2019-01-08T00:23:12.941Z,1010.9252
2019-01-08T00:23:16.399Z,1010.8865
2019-01-08T00:23:19.821Z,1010.8602
2019-01-08T00:23:23.260Z,1010.8612
2019-01-08T00:23:26.706Z,1010.8781
2019-01-08T00:23:30.149Z,1010.8984
2019-01-08T00:23:33.590Z,1010.8805
2019-01-08T00:23:37.033Z,1010.8898
2019-01-08T00:23:40.490Z,1010.8208
2019-01-08T00:23:43.962Z,1010.8696
2019-01-08T00:23:47.407Z,1010.8292
2019-01-08T00:23:50.852Z,1010.809
2019-01-08T00:23:54.278Z,1010.8696
2019-01-08T00:23:57.717Z,1010.8545
2019-01-08T00:24:01.179Z,1010.8275
2019-01-08T00:24:04.611Z,1010.8532
2019-01-08T00:24:08.069Z,1010.8599
2019-01-08T00:24:11.511Z,1010.8175
2019-01-08T00:24:15.951Z,1010.8179
2019-01-08T00:24:19.391Z,1010.8212
2019-01-08T00:24:22.838Z,1010.8393
2019-01-08T00:24:26.278Z,1010.7926
2019-01-08T00:24:29.712Z,1010.7804
2019-01-08T00:24:33.149Z,1010.8381
2019-01-08T00:24:36.619Z,1010.8157
2019-01-08T00:24:40.034Z,1010.7737
2019-01-08T00:24:43.466Z,1010.8069
2019-01-08T00:24:46.928Z,1010.7587
2019-01-08T00:24:50.392Z,1010.7888
2019-01-08T00:24:53.809Z,1010.7653
2019-01-08T00:24:57.252Z,1010.7787
2019-01-08T00:25:01.925Z,1010.8279
2019-01-08T00:25:05.360Z,1010.812
2019-01-08T00:25:08.794Z,1010.8347
2019-01-08T00:25:12.243Z,1010.8254
2019-01-08T00:25:15.673Z,1010.8742
2019-01-08T00:25:19.107Z,1010.8781
2019-01-08T00:25:22.547Z,1010.8371
2019-01-08T00:25:25.984Z,1010.8674
2019-01-08T00:25:29.434Z,1010.8674
2019-01-08T00:25:32.864Z,1010.8125
2019-01-08T00:25:36.309Z,1010.8347
2019-01-08T00:25:39.751Z,1010.8254
2019-01-08T00:25:43.192Z,1010.8197
2019-01-08T00:25:46.637Z,1010.8222
2019-01-08T00:25:50.080Z,1010.8052
2019-01-08T00:25:53.523Z,1010.8381
2019-01-08T00:25:56.964Z,1010.8534
2019-01-08T00:26:00.402Z,1010.8035
2019-01-08T00:26:03.836Z,1010.7859
2019-01-08T00:26:07.283Z,1010.7725
2019-01-08T00:26:10.721Z,1010.7725
2019-01-08T00:26:14.155Z,1010.8145
2019-01-08T00:26:17.593Z,1010.8073
2019-01-08T00:26:21.030Z,1010.8507
2019-01-08T00:26:24.471Z,1010.8203
2019-01-08T00:26:27.906Z,1010.8203
2019-01-08T00:26:31.339Z,1010.8035
2019-01-08T00:26:34.786Z,1010.8281
2019-01-08T00:26:38.223Z,1010.8078
2019-01-08T00:26:41.658Z,1010.7918
2019-01-08T00:26:45.114Z,1010.8225
2019-01-08T00:26:48.563Z,1010.7809
2019-01-08T00:26:51.998Z,1010.8103
2019-01-08T00:26:55.440Z,1010.8297
2019-01-08T00:26:58.881Z,1010.7749
2019-01-08T00:27:02.389Z,1010.7825
2019-01-08T00:27:05.757Z,1010.7817
2019-01-08T00:27:10.191Z,1010.7859
2019-01-08T00:27:13.628Z,1010.8112
2019-01-08T00:27:17.080Z,1010.8517
2019-01-08T00:27:20.526Z,1010.7833
2019-01-08T00:27:23.959Z,1010.796
2019-01-08T00:27:27.408Z,1010.8237
2019-01-08T00:27:30.840Z,1010.7977
2019-01-08T00:27:34.286Z,1010.791
2019-01-08T00:27:37.737Z,1010.7565
2019-01-08T00:27:44.188Z,1010.7918
2019-01-08T00:27:47.644Z,1010.7438
2019-01-08T00:27:51.087Z,1010.7726
2019-01-08T00:27:54.524Z,1010.7732
2019-01-08T00:27:58.950Z,1010.7851
2019-01-08T00:28:02.424Z,1010.7515
2019-01-08T00:28:05.828Z,1010.7471
2019-01-08T00:28:09.270Z,1010.7447
2019-01-08T00:28:13.712Z,1010.7051
2019-01-08T00:28:17.157Z,1010.7084
2019-01-08T00:28:20.590Z,1010.7203
2019-01-08T00:28:24.027Z,1010.7254
2019-01-08T00:28:27.470Z,1010.7177
2019-01-08T00:28:31.899Z,1010.712
2019-01-08T00:28:42.853Z,1010.7153
2019-01-08T00:28:43.165Z,1010.76
2019-01-08T00:28:46.207Z,1010.69
2019-01-08T00:28:49.656Z,1010.7271
2019-01-08T00:28:53.097Z,1010.7498
2019-01-08T00:28:56.532Z,1010.7153
2019-01-08T00:28:59.965Z,1010.7204
2019-01-08T00:29:03.407Z,1010.7431
2019-01-08T00:29:06.838Z,1010.7927
2019-01-08T00:29:11.275Z,1010.781
2019-01-08T00:29:14.712Z,1010.7826
2019-01-08T00:29:18.158Z,1010.7633
2019-01-08T00:29:21.610Z,1010.7254
2019-01-08T00:29:25.155Z,1010.7507
2019-01-08T00:29:28.489Z,1010.749
2019-01-08T00:29:31.965Z,1010.7734
2019-01-08T00:29:35.411Z,1010.7221
2019-01-08T00:29:38.860Z,1010.7473
2019-01-08T00:29:42.298Z,1010.7902
2019-01-08T00:29:45.750Z,1010.7531
2019-01-08T00:29:49.186Z,1010.738
2019-01-08T00:29:52.635Z,1010.7195
2019-01-08T00:29:56.086Z,1010.7473
2019-01-08T00:29:59.525Z,1010.7036
2019-01-08T00:30:02.954Z,1010.712
2019-01-08T00:30:06.406Z,1010.712
2019-01-08T00:30:09.851Z,1010.7087
2019-01-08T00:30:13.283Z,1010.7406
2019-01-08T00:30:17.712Z,1010.7363
2019-01-08T00:30:21.152Z,1010.7524
2019-01-08T00:30:24.621Z,1010.7693
2019-01-08T00:30:28.053Z,1010.7153
2019-01-08T00:30:31.491Z,1010.8122
2019-01-08T00:30:34.933Z,1010.8114
2019-01-08T00:30:38.372Z,1010.8223
2019-01-08T00:30:41.853Z,1010.7912
2019-01-08T00:30:45.260Z,1010.8425
2019-01-08T00:30:48.699Z,1010.7415
2019-01-08T00:30:52.146Z,1010.7254
2019-01-08T00:30:56.565Z,1010.7524
2019-01-08T00:30:59.998Z,1010.6994
2019-01-08T00:31:04.579Z,1010.7355
2019-01-08T00:31:08.019Z,1010.7801
2019-01-08T00:31:11.457Z,1010.7616
2019-01-08T00:31:14.923Z,1010.8054
2019-01-08T00:31:18.352Z,1010.7985
2019-01-08T00:31:21.795Z,1010.6987
2019-01-08T00:31:25.220Z,1010.6598
2019-01-08T00:31:28.648Z,1010.7103
2019-01-08T00:31:32.148Z,1010.7845
2019-01-08T00:31:35.601Z,1010.7407
2019-01-08T00:31:39.086Z,1010.7432
2019-01-08T00:31:42.587Z,1010.7559
2019-01-08T00:31:46.109Z,1010.7525
2019-01-08T00:31:49.523Z,1010.6749
2019-01-08T00:31:52.970Z,1010.7139
2019-01-08T00:31:56.404Z,1010.7321
2019-01-08T00:32:00.850Z,1010.744
2019-01-08T00:32:04.319Z,1010.7331
2019-01-08T00:32:07.754Z,1010.7811
2019-01-08T00:32:11.190Z,1010.7447
2019-01-08T00:32:14.643Z,1010.7644
2019-01-08T00:32:18.063Z,1010.7634
2019-01-08T00:32:21.514Z,1010.7659
2019-01-08T00:32:24.950Z,1010.7751
2019-01-08T00:32:28.391Z,1010.7929
2019-01-08T00:32:31.830Z,1010.7466
2019-01-08T00:32:35.262Z,1010.7634
2019-01-08T00:32:38.704Z,1010.8021
2019-01-08T00:32:42.150Z,1010.7575
2019-01-08T00:32:45.590Z,1010.75
2019-01-08T00:32:49.034Z,1010.755
2019-01-08T00:32:52.485Z,1010.7778
2019-01-08T00:32:56.936Z,1010.7902
2019-01-08T00:33:00.390Z,1010.7609
2019-01-08T00:33:03.820Z,1010.7937
2019-01-08T00:33:07.265Z,1010.765
2019-01-08T00:33:10.704Z,1010.7011
2019-01-08T00:33:14.148Z,1010.7281
2019-01-08T00:33:17.593Z,1010.7273
2019-01-08T00:33:21.034Z,1010.7642
2019-01-08T00:33:24.471Z,1010.7742
2019-01-08T00:33:27.916Z,1010.7474
2019-01-08T00:33:31.349Z,1010.7196
2019-01-08T00:33:34.795Z,1010.7222
2019-01-08T00:33:38.255Z,1010.7424
2019-01-08T00:33:41.694Z,1010.7743
2019-01-08T00:33:45.143Z,1010.7843
2019-01-08T00:33:48.580Z,1010.7963
2019-01-08T00:33:52.031Z,1010.7693
2019-01-08T00:33:55.467Z,1010.7509
2019-01-08T00:33:58.909Z,1010.7609
2019-01-08T00:34:02.355Z,1010.8283
2019-01-08T00:34:05.793Z,1010.8373
2019-01-08T00:34:09.231Z,1010.7826
2019-01-08T00:34:12.667Z,1010.8013
2019-01-08T00:34:16.113Z,1010.7449
2019-01-08T00:34:19.562Z,1010.7355
2019-01-08T00:34:22.995Z,1010.7996
2019-01-08T00:34:26.431Z,1010.7531
2019-01-08T00:34:29.876Z,1010.7482
2019-01-08T00:34:33.331Z,1010.7155
2019-01-08T00:34:36.763Z,1010.7053
2019-01-08T00:34:40.199Z,1010.7711
2019-01-08T00:34:43.662Z,1010.7037
2019-01-08T00:34:47.103Z,1010.7153
2019-01-08T00:34:50.552Z,1010.7767
2019-01-08T00:34:53.992Z,1010.7795
2019-01-08T00:34:57.447Z,1010.7676
2019-01-08T00:35:00.870Z,1010.7985
2019-01-08T00:35:04.386Z,1010.7307
2019-01-08T00:35:07.822Z,1010.7407
2019-01-08T00:35:11.265Z,1010.7391
2019-01-08T00:35:14.708Z,1010.7121
2019-01-08T00:35:18.148Z,1010.7557
2019-01-08T00:35:21.583Z,1010.7525
2019-01-08T00:35:25.019Z,1010.7525
2019-01-08T00:35:28.464Z,1010.7626
2019-01-08T00:35:31.915Z,1010.7818
2019-01-08T00:35:35.355Z,1010.7357
2019-01-08T00:35:38.793Z,1010.7189
2019-01-08T00:35:42.256Z,1010.7155
2019-01-08T00:35:46.706Z,1010.7515
2019-01-08T00:35:50.152Z,1010.7256
2019-01-08T00:35:53.592Z,1010.7161
2019-01-08T00:35:58.023Z,1010.7037
2019-01-08T00:36:01.463Z,1010.7608
2019-01-08T00:36:04.899Z,1010.7161
2019-01-08T00:36:08.343Z,1010.7229
2019-01-08T00:36:11.782Z,1010.7239
2019-01-08T00:36:15.234Z,1010.7256
2019-01-08T00:36:18.669Z,1010.7238
2019-01-08T00:36:22.115Z,1010.7161
2019-01-08T00:36:25.547Z,1010.6885
2019-01-08T00:36:28.985Z,1010.7054
2019-01-08T00:36:32.437Z,1010.7093
2019-01-08T00:36:35.874Z,1010.7245
2019-01-08T00:36:39.311Z,1010.6935
2019-01-08T00:36:42.759Z,1010.6986
2019-01-08T00:36:46.204Z,1010.7053
2019-01-08T00:36:49.642Z,1010.6909
2019-01-08T00:36:53.078Z,1010.7204
2019-01-08T00:36:56.516Z,1010.7329
2019-01-08T00:36:59.959Z,1010.7515
2019-01-08T00:37:03.406Z,1010.7644
2019-01-08T00:37:06.848Z,1010.755
2019-01-08T00:37:10.287Z,1010.7424
2019-01-08T00:37:13.743Z,1010.7542
2019-01-08T00:37:17.186Z,1010.7212
2019-01-08T00:37:20.607Z,1010.7667
2019-01-08T00:37:24.051Z,1010.7592
2019-01-08T00:37:27.495Z,1010.7054
2019-01-08T00:37:30.928Z,1010.7977
2019-01-08T00:37:34.367Z,1010.7548
2019-01-08T00:37:37.809Z,1010.7121
2019-01-08T00:37:41.239Z,1010.712
2019-01-08T00:37:44.682Z,1010.7246
2019-01-08T00:37:49.164Z,1010.6919
2019-01-08T00:37:52.608Z,1010.7043
2019-01-08T00:37:56.138Z,1010.7254
2019-01-08T00:37:59.512Z,1010.7139
2019-01-08T00:38:02.954Z,1010.7406
2019-01-08T00:38:06.390Z,1010.7256
2019-01-08T00:38:09.822Z,1010.7111
2019-01-08T00:38:13.256Z,1010.7407
2019-01-08T00:38:16.704Z,1010.7037
2019-01-08T00:38:20.147Z,1010.7161
2019-01-08T00:38:23.582Z,1010.7423
2019-01-08T00:38:27.032Z,1010.6774
2019-01-08T00:38:30.470Z,1010.6724
2019-01-08T00:38:33.911Z,1010.6968
2019-01-08T00:38:37.350Z,1010.6684
2019-01-08T00:38:40.785Z,1010.7187
2019-01-08T00:38:44.216Z,1010.6673
2019-01-08T00:38:47.679Z,1010.6751
2019-01-08T00:38:51.114Z,1010.6893
2019-01-08T00:38:54.549Z,1010.6858
2019-01-08T00:38:57.985Z,1010.6295
2019-01-08T00:39:02.415Z,1010.6768
2019-01-08T00:39:05.854Z,1010.6581
2019-01-08T00:39:09.291Z,1010.6665
2019-01-08T00:39:12.734Z,1010.6903
2019-01-08T00:39:16.168Z,1010.6514
2019-01-08T00:39:19.622Z,1010.6959
2019-01-08T00:39:23.075Z,1010.6817
2019-01-08T00:39:26.509Z,1010.6817
2019-01-08T00:39:29.944Z,1010.6437
2019-01-08T00:39:33.390Z,1010.6682
2019-01-08T00:39:36.829Z,1010.6615
2019-01-08T00:39:40.268Z,1010.6919
2019-01-08T00:39:43.708Z,1010.6951
2019-01-08T00:39:47.144Z,1010.6858
2019-01-08T00:39:50.585Z,1010.6909
2019-01-08T00:39:54.017Z,1010.7043
2019-01-08T00:39:57.448Z,1010.7069
2019-01-08T00:40:00.897Z,1010.6379
2019-01-08T00:40:04.338Z,1010.717
2019-01-08T00:40:07.771Z,1010.7187